KJYR

York Municipal Airport

York, Nebraska, USA
METAR KJYR 151915Z AUTO 22017G21KT 10SM CLR 06/00 A2990 RMK AO2
Observed Flight Rules
Dec-15 @ 19:15 UTC (34 minutes ago) Visual Flight Rules
Wind Visibility Clouds
220° at 17 knots
 Gusting to 21 knots
10 miles
  • Clear skies
Temperatures Readings
Current 6°C / 43°F
Dewpoint 0°C / 32°F
Humidity 66%
Altimeter 29.9" Hg
Pressure 1013 hPa
Elevation 509
METAR KJYR 151915Z AUTO 22017G21KT 10SM CLR 06/00 A2990 RMK AO2
Observed Flight Rules
Dec-15 @ 19:15 UTC
(34 minutes ago)
VFR
Wind Visibility
220° at 17 knots
 Gusting to 21 knots
10 miles
Clouds
  • Clear skies
Temperature Dewpoint
6°C / 43°F 0°C / 32°F
Humidity Altimeter Pressure
66% 29.9" Hg 1013 hPa